sensor_id;sensor_type;location;lat;lon;timestamp;temperature;humidity
14411;DHT22;7290;50.854;4.354;2023-08-30T00:01:56;16.90;99.90
14411;DHT22;7290;50.854;4.354;2023-08-30T00:04:22;16.90;99.90
14411;DHT22;7290;50.854;4.354;2023-08-30T00:06:48;16.90;99.90
14411;DHT22;7290;50.854;4.354;2023-08-30T00:09:14;16.90;99.90
14411;DHT22;7290;50.854;4.354;2023-08-30T00:11:40;16.90;99.90
14411;DHT22;7290;50.854;4.354;2023-08-30T00:14:07;16.90;99.90
14411;DHT22;7290;50.854;4.354;2023-08-30T00:16:33;16.80;99.90
14411;DHT22;7290;50.854;4.354;2023-08-30T00:18:59;16.70;99.90
14411;DHT22;7290;50.854;4.354;2023-08-30T00:21:26;16.70;99.90
14411;DHT22;7290;50.854;4.354;2023-08-30T00:23:53;16.60;99.90
14411;DHT22;7290;50.854;4.354;2023-08-30T00:26:19;16.40;99.90
14411;DHT22;7290;50.854;4.354;2023-08-30T00:28:45;16.40;99.90
14411;DHT22;7290;50.854;4.354;2023-08-30T00:31:11;16.40;99.90
14411;DHT22;7290;50.854;4.354;2023-08-30T00:33:37;16.30;99.90
14411;DHT22;7290;50.854;4.354;2023-08-30T00:36:04;16.40;99.90
14411;DHT22;7290;50.854;4.354;2023-08-30T00:38:32;16.40;99.90
14411;DHT22;7290;50.854;4.354;2023-08-30T00:40:58;16.40;99.90
14411;DHT22;7290;50.854;4.354;2023-08-30T00:43:24;16.40;99.90
14411;DHT22;7290;50.854;4.354;2023-08-30T00:45:51;16.40;99.90
14411;DHT22;7290;50.854;4.354;2023-08-30T00:48:19;16.40;99.90
14411;DHT22;7290;50.854;4.354;2023-08-30T00:50:46;16.30;99.90
14411;DHT22;7290;50.854;4.354;2023-08-30T00:53:12;16.20;99.90
14411;DHT22;7290;50.854;4.354;2023-08-30T00:55:39;16.20;99.90
14411;DHT22;7290;50.854;4.354;2023-08-30T00:58:06;16.20;99.90
14411;DHT22;7290;50.854;4.354;2023-08-30T01:00:34;16.20;99.90
14411;DHT22;7290;50.854;4.354;2023-08-30T01:03:00;16.20;99.90
14411;DHT22;7290;50.854;4.354;2023-08-30T01:05:27;16.10;99.90
14411;DHT22;7290;50.854;4.354;2023-08-30T01:07:54;16.00;99.90
14411;DHT22;7290;50.854;4.354;2023-08-30T01:10:25;16.00;99.90
14411;DHT22;7290;50.854;4.354;2023-08-30T01:12:56;16.10;99.90
14411;DHT22;7290;50.854;4.354;2023-08-30T01:15:23;16.10;99.90
14411;DHT22;7290;50.854;4.354;2023-08-30T01:17:52;16.10;99.90
14411;DHT22;7290;50.854;4.354;2023-08-30T01:20:21;16.10;99.90
14411;DHT22;7290;50.854;4.354;2023-08-30T01:22:55;16.00;99.90
14411;DHT22;7290;50.854;4.354;2023-08-30T01:25:35;16.00;99.90
14411;DHT22;7290;50.854;4.354;2023-08-30T01:28:05;15.90;99.90
14411;DHT22;7290;50.854;4.354;2023-08-30T01:30:33;16.00;99.90
14411;DHT22;7290;50.854;4.354;2023-08-30T01:33:00;16.00;99.90
14411;DHT22;7290;50.854;4.354;2023-08-30T01:35:28;16.00;99.90
14411;DHT22;7290;50.854;4.354;2023-08-30T01:37:58;16.10;99.90
14411;DHT22;7290;50.854;4.354;2023-08-30T01:40:27;16.20;99.90
14411;DHT22;7290;50.854;4.354;2023-08-30T01:42:54;16.10;99.90
14411;DHT22;7290;50.854;4.354;2023-08-30T01:45:22;16.00;99.90
14411;DHT22;7290;50.854;4.354;2023-08-30T01:47:49;16.00;99.90
14411;DHT22;7290;50.854;4.354;2023-08-30T01:50:19;16.00;99.90
14411;DHT22;7290;50.854;4.354;2023-08-30T01:52:46;16.10;99.90
14411;DHT22;7290;50.854;4.354;2023-08-30T01:55:14;16.00;99.90
14411;DHT22;7290;50.854;4.354;2023-08-30T01:57:40;16.00;99.90
14411;DHT22;7290;50.854;4.354;2023-08-30T02:00:08;15.90;99.90
14411;DHT22;7290;50.854;4.354;2023-08-30T02:02:36;16.00;99.90
14411;DHT22;7290;50.854;4.354;2023-08-30T02:05:02;16.00;99.90
14411;DHT22;7290;50.854;4.354;2023-08-30T02:07:40;16.00;99.90
14411;DHT22;7290;50.854;4.354;2023-08-30T02:10:10;15.90;99.90
14411;DHT22;7290;50.854;4.354;2023-08-30T02:12:41;15.90;99.90
14411;DHT22;7290;50.854;4.354;2023-08-30T02:15:09;16.00;99.90
14411;DHT22;7290;50.854;4.354;2023-08-30T02:17:37;16.00;99.90
14411;DHT22;7290;50.854;4.354;2023-08-30T02:20:05;16.20;99.90
14411;DHT22;7290;50.854;4.354;2023-08-30T02:22:31;16.20;99.90
14411;DHT22;7290;50.854;4.354;2023-08-30T02:24:58;16.20;99.90
14411;DHT22;7290;50.854;4.354;2023-08-30T02:27:25;16.40;99.90
14411;DHT22;7290;50.854;4.354;2023-08-30T02:29:51;16.40;99.90
14411;DHT22;7290;50.854;4.354;2023-08-30T02:32:17;16.40;99.90
14411;DHT22;7290;50.854;4.354;2023-08-30T02:34:51;16.40;99.90
14411;DHT22;7290;50.854;4.354;2023-08-30T02:37:18;16.50;99.90
14411;DHT22;7290;50.854;4.354;2023-08-30T02:39:44;16.60;99.90
14411;DHT22;7290;50.854;4.354;2023-08-30T02:42:10;16.60;99.90
14411;DHT22;7290;50.854;4.354;2023-08-30T02:44:36;16.70;99.90
14411;DHT22;7290;50.854;4.354;2023-08-30T02:47:03;16.70;99.90
14411;DHT22;7290;50.854;4.354;2023-08-30T02:49:29;16.70;99.90
14411;DHT22;7290;50.854;4.354;2023-08-30T02:51:56;16.60;99.90
14411;DHT22;7290;50.854;4.354;2023-08-30T02:54:22;16.60;99.90
14411;DHT22;7290;50.854;4.354;2023-08-30T02:56:48;16.50;99.90
14411;DHT22;7290;50.854;4.354;2023-08-30T02:59:14;16.60;99.90
14411;DHT22;7290;50.854;4.354;2023-08-30T03:01:40;16.40;99.90
14411;DHT22;7290;50.854;4.354;2023-08-30T03:04:07;16.50;99.90
14411;DHT22;7290;50.854;4.354;2023-08-30T03:06:33;16.60;99.90
14411;DHT22;7290;50.854;4.354;2023-08-30T03:09:00;16.50;99.90
14411;DHT22;7290;50.854;4.354;2023-08-30T03:11:26;16.50;99.90
14411;DHT22;7290;50.854;4.354;2023-08-30T03:13:53;16.50;99.90
14411;DHT22;7290;50.854;4.354;2023-08-30T03:16:20;16.50;99.90
14411;DHT22;7290;50.854;4.354;2023-08-30T03:18:47;16.60;99.90
14411;DHT22;7290;50.854;4.354;2023-08-30T03:21:13;16.50;99.90
14411;DHT22;7290;50.854;4.354;2023-08-30T03:23:40;16.40;99.90
14411;DHT22;7290;50.854;4.354;2023-08-30T03:26:10;16.50;99.90
14411;DHT22;7290;50.854;4.354;2023-08-30T03:28:36;16.50;99.90
14411;DHT22;7290;50.854;4.354;2023-08-30T03:31:11;16.40;99.90
14411;DHT22;7290;50.854;4.354;2023-08-30T03:33:37;16.40;99.90
14411;DHT22;7290;50.854;4.354;2023-08-30T03:36:04;16.50;99.90
14411;DHT22;7290;50.854;4.354;2023-08-30T03:38:30;16.40;99.90
14411;DHT22;7290;50.854;4.354;2023-08-30T03:40:56;16.40;99.90
14411;DHT22;7290;50.854;4.354;2023-08-30T03:43:23;16.40;99.90
14411;DHT22;7290;50.854;4.354;2023-08-30T03:45:49;16.40;99.90
14411;DHT22;7290;50.854;4.354;2023-08-30T03:48:15;16.40;99.90
14411;DHT22;7290;50.854;4.354;2023-08-30T03:50:41;16.50;99.90
14411;DHT22;7290;50.854;4.354;2023-08-30T03:53:07;16.50;99.90
14411;DHT22;7290;50.854;4.354;2023-08-30T03:55:33;16.60;99.90
14411;DHT22;7290;50.854;4.354;2023-08-30T03:57:59;16.60;99.90
14411;DHT22;7290;50.854;4.354;2023-08-30T04:00:26;16.40;99.90
14411;DHT22;7290;50.854;4.354;2023-08-30T04:02:52;16.40;99.90
14411;DHT22;7290;50.854;4.354;2023-08-30T04:05:18;16.50;99.90
14411;DHT22;7290;50.854;4.354;2023-08-30T04:07:45;16.60;99.90
14411;DHT22;7290;50.854;4.354;2023-08-30T04:10:11;16.50;99.90
14411;DHT22;7290;50.854;4.354;2023-08-30T04:12:37;16.50;99.90
14411;DHT22;7290;50.854;4.354;2023-08-30T04:15:03;16.50;99.90
14411;DHT22;7290;50.854;4.354;2023-08-30T04:17:30;16.50;99.90
14411;DHT22;7290;50.854;4.354;2023-08-30T04:19:56;16.50;99.90
14411;DHT22;7290;50.854;4.354;2023-08-30T04:22:22;16.40;99.90
14411;DHT22;7290;50.854;4.354;2023-08-30T04:24:48;16.40;99.90
14411;DHT22;7290;50.854;4.354;2023-08-30T04:27:15;16.40;99.90
14411;DHT22;7290;50.854;4.354;2023-08-30T04:29:41;16.50;99.90
14411;DHT22;7290;50.854;4.354;2023-08-30T04:32:10;16.40;99.90
14411;DHT22;7290;50.854;4.354;2023-08-30T04:34:37;16.30;99.90
14411;DHT22;7290;50.854;4.354;2023-08-30T04:37:03;16.20;99.90
14411;DHT22;7290;50.854;4.354;2023-08-30T04:39:29;16.10;99.90
14411;DHT22;7290;50.854;4.354;2023-08-30T04:41:55;16.00;99.90
14411;DHT22;7290;50.854;4.354;2023-08-30T04:44:22;15.90;99.90
14411;DHT22;7290;50.854;4.354;2023-08-30T04:46:50;15.80;99.90
14411;DHT22;7290;50.854;4.354;2023-08-30T04:49:17;15.70;99.90
14411;DHT22;7290;50.854;4.354;2023-08-30T04:51:44;15.70;99.90
14411;DHT22;7290;50.854;4.354;2023-08-30T04:54:10;15.70;99.90
14411;DHT22;7290;50.854;4.354;2023-08-30T04:56:36;15.70;99.90
14411;DHT22;7290;50.854;4.354;2023-08-30T04:59:03;15.70;99.90
14411;DHT22;7290;50.854;4.354;2023-08-30T05:01:30;15.80;99.90
14411;DHT22;7290;50.854;4.354;2023-08-30T05:03:56;15.80;99.90
14411;DHT22;7290;50.854;4.354;2023-08-30T05:06:22;15.80;99.90
14411;DHT22;7290;50.854;4.354;2023-08-30T05:08:49;15.80;99.90
14411;DHT22;7290;50.854;4.354;2023-08-30T05:11:15;15.90;99.90
14411;DHT22;7290;50.854;4.354;2023-08-30T05:13:42;15.90;99.90
14411;DHT22;7290;50.854;4.354;2023-08-30T05:16:08;15.70;99.90
14411;DHT22;7290;50.854;4.354;2023-08-30T05:18:37;15.60;99.90
14411;DHT22;7290;50.854;4.354;2023-08-30T05:21:04;15.60;99.90
14411;DHT22;7290;50.854;4.354;2023-08-30T05:23:30;15.60;99.90
14411;DHT22;7290;50.854;4.354;2023-08-30T05:25:57;15.50;99.90
14411;DHT22;7290;50.854;4.354;2023-08-30T05:28:23;15.50;99.90
14411;DHT22;7290;50.854;4.354;2023-08-30T05:30:49;15.40;99.90
14411;DHT22;7290;50.854;4.354;2023-08-30T05:33:16;15.30;99.90
14411;DHT22;7290;50.854;4.354;2023-08-30T05:35:42;15.30;99.90
14411;DHT22;7290;50.854;4.354;2023-08-30T05:38:08;15.40;99.90
14411;DHT22;7290;50.854;4.354;2023-08-30T05:40:34;15.40;99.90
14411;DHT22;7290;50.854;4.354;2023-08-30T05:43:01;15.40;99.90
14411;DHT22;7290;50.854;4.354;2023-08-30T05:45:27;15.50;99.90
14411;DHT22;7290;50.854;4.354;2023-08-30T05:47:53;15.50;99.90
14411;DHT22;7290;50.854;4.354;2023-08-30T05:50:20;15.60;99.90
14411;DHT22;7290;50.854;4.354;2023-08-30T05:52:46;15.60;99.90
14411;DHT22;7290;50.854;4.354;2023-08-30T05:55:12;15.60;99.90
14411;DHT22;7290;50.854;4.354;2023-08-30T05:57:38;15.60;99.90
14411;DHT22;7290;50.854;4.354;2023-08-30T06:00:07;15.80;99.90
14411;DHT22;7290;50.854;4.354;2023-08-30T06:02:34;15.80;99.90
14411;DHT22;7290;50.854;4.354;2023-08-30T06:05:01;15.80;99.90
14411;DHT22;7290;50.854;4.354;2023-08-30T06:07:28;15.80;99.90
14411;DHT22;7290;50.854;4.354;2023-08-30T06:09:54;15.70;99.90
14411;DHT22;7290;50.854;4.354;2023-08-30T06:12:20;15.80;99.90
14411;DHT22;7290;50.854;4.354;2023-08-30T06:14:46;15.80;99.90
14411;DHT22;7290;50.854;4.354;2023-08-30T06:17:18;15.90;99.90
14411;DHT22;7290;50.854;4.354;2023-08-30T06:19:44;16.00;99.90
14411;DHT22;7290;50.854;4.354;2023-08-30T06:22:10;16.00;99.90
14411;DHT22;7290;50.854;4.354;2023-08-30T06:24:36;15.90;99.90
14411;DHT22;7290;50.854;4.354;2023-08-30T06:27:03;15.90;99.90
14411;DHT22;7290;50.854;4.354;2023-08-30T06:29:29;15.80;99.90
14411;DHT22;7290;50.854;4.354;2023-08-30T06:31:55;15.70;99.90
14411;DHT22;7290;50.854;4.354;2023-08-30T06:34:22;15.60;99.90
14411;DHT22;7290;50.854;4.354;2023-08-30T06:36:48;15.60;99.90
14411;DHT22;7290;50.854;4.354;2023-08-30T06:39:14;15.50;99.90
14411;DHT22;7290;50.854;4.354;2023-08-30T06:41:40;15.50;99.90
14411;DHT22;7290;50.854;4.354;2023-08-30T06:44:06;15.40;99.90
14411;DHT22;7290;50.854;4.354;2023-08-30T06:46:32;15.30;99.90
14411;DHT22;7290;50.854;4.354;2023-08-30T06:48:58;15.30;99.90
14411;DHT22;7290;50.854;4.354;2023-08-30T06:51:25;15.20;99.90
14411;DHT22;7290;50.854;4.354;2023-08-30T06:53:51;15.20;99.90
14411;DHT22;7290;50.854;4.354;2023-08-30T06:56:17;15.30;99.90
14411;DHT22;7290;50.854;4.354;2023-08-30T06:58:43;15.30;99.90
14411;DHT22;7290;50.854;4.354;2023-08-30T07:01:09;15.30;99.90
14411;DHT22;7290;50.854;4.354;2023-08-30T07:03:35;15.30;99.90
14411;DHT22;7290;50.854;4.354;2023-08-30T07:06:01;15.30;99.90
14411;DHT22;7290;50.854;4.354;2023-08-30T07:08:28;15.30;99.90
14411;DHT22;7290;50.854;4.354;2023-08-30T07:10:55;15.40;99.90
14411;DHT22;7290;50.854;4.354;2023-08-30T07:13:21;15.40;99.90
14411;DHT22;7290;50.854;4.354;2023-08-30T07:15:47;15.40;99.90
14411;DHT22;7290;50.854;4.354;2023-08-30T07:18:14;15.30;99.90
14411;DHT22;7290;50.854;4.354;2023-08-30T07:20:40;15.40;99.90
14411;DHT22;7290;50.854;4.354;2023-08-30T07:23:06;15.50;99.90
14411;DHT22;7290;50.854;4.354;2023-08-30T07:25:33;15.50;99.90
14411;DHT22;7290;50.854;4.354;2023-08-30T07:28:01;15.60;99.90
14411;DHT22;7290;50.854;4.354;2023-08-30T07:30:27;15.40;99.90
14411;DHT22;7290;50.854;4.354;2023-08-30T07:32:54;15.30;99.90
14411;DHT22;7290;50.854;4.354;2023-08-30T07:35:20;15.30;99.90
14411;DHT22;7290;50.854;4.354;2023-08-30T07:37:46;15.20;99.90
14411;DHT22;7290;50.854;4.354;2023-08-30T07:40:12;15.30;99.90
14411;DHT22;7290;50.854;4.354;2023-08-30T07:42:40;15.30;99.90
14411;DHT22;7290;50.854;4.354;2023-08-30T07:45:07;15.40;99.90
14411;DHT22;7290;50.854;4.354;2023-08-30T07:47:33;15.60;99.90
14411;DHT22;7290;50.854;4.354;2023-08-30T07:49:59;15.70;99.90
14411;DHT22;7290;50.854;4.354;2023-08-30T07:52:25;15.70;99.90
14411;DHT22;7290;50.854;4.354;2023-08-30T07:54:52;15.60;99.90
14411;DHT22;7290;50.854;4.354;2023-08-30T07:57:18;15.50;99.90
14411;DHT22;7290;50.854;4.354;2023-08-30T07:59:45;15.50;99.90
14411;DHT22;7290;50.854;4.354;2023-08-30T08:02:11;15.40;99.90
14411;DHT22;7290;50.854;4.354;2023-08-30T08:04:38;15.40;99.90
14411;DHT22;7290;50.854;4.354;2023-08-30T08:07:04;15.40;99.90
14411;DHT22;7290;50.854;4.354;2023-08-30T08:09:30;15.50;99.90
14411;DHT22;7290;50.854;4.354;2023-08-30T08:11:56;15.50;99.90
14411;DHT22;7290;50.854;4.354;2023-08-30T08:14:22;15.50;99.90
14411;DHT22;7290;50.854;4.354;2023-08-30T08:16:50;15.50;99.90
14411;DHT22;7290;50.854;4.354;2023-08-30T08:19:16;15.50;99.90
14411;DHT22;7290;50.854;4.354;2023-08-30T08:21:42;15.60;99.90
14411;DHT22;7290;50.854;4.354;2023-08-30T08:24:08;15.70;99.90
14411;DHT22;7290;50.854;4.354;2023-08-30T08:26:34;15.90;99.90
14411;DHT22;7290;50.854;4.354;2023-08-30T08:29:01;15.90;99.90
14411;DHT22;7290;50.854;4.354;2023-08-30T08:31:27;15.90;99.90
14411;DHT22;7290;50.854;4.354;2023-08-30T08:34:08;16.00;99.90
14411;DHT22;7290;50.854;4.354;2023-08-30T08:36:35;15.90;99.90
14411;DHT22;7290;50.854;4.354;2023-08-30T08:39:01;15.90;99.90
14411;DHT22;7290;50.854;4.354;2023-08-30T08:41:35;15.90;99.90
14411;DHT22;7290;50.854;4.354;2023-08-30T08:44:05;16.00;99.90
14411;DHT22;7290;50.854;4.354;2023-08-30T08:46:32;16.20;99.90
14411;DHT22;7290;50.854;4.354;2023-08-30T08:49:02;16.20;99.90
14411;DHT22;7290;50.854;4.354;2023-08-30T08:51:31;16.30;99.90
14411;DHT22;7290;50.854;4.354;2023-08-30T08:54:03;16.40;99.90
14411;DHT22;7290;50.854;4.354;2023-08-30T08:56:30;16.40;99.90
14411;DHT22;7290;50.854;4.354;2023-08-30T08:58:56;16.40;99.90
14411;DHT22;7290;50.854;4.354;2023-08-30T09:01:23;16.60;99.90
14411;DHT22;7290;50.854;4.354;2023-08-30T09:03:50;16.70;99.90
14411;DHT22;7290;50.854;4.354;2023-08-30T09:06:17;16.80;99.90
14411;DHT22;7290;50.854;4.354;2023-08-30T09:08:43;17.00;99.90
14411;DHT22;7290;50.854;4.354;2023-08-30T09:11:10;17.10;99.90
14411;DHT22;7290;50.854;4.354;2023-08-30T09:13:36;17.00;99.90
14411;DHT22;7290;50.854;4.354;2023-08-30T09:16:03;17.00;99.90
14411;DHT22;7290;50.854;4.354;2023-08-30T09:18:37;17.10;99.90
14411;DHT22;7290;50.854;4.354;2023-08-30T09:21:06;17.10;99.90
14411;DHT22;7290;50.854;4.354;2023-08-30T09:23:33;17.00;99.90
14411;DHT22;7290;50.854;4.354;2023-08-30T09:26:00;16.90;99.90
14411;DHT22;7290;50.854;4.354;2023-08-30T09:28:26;16.90;99.90
14411;DHT22;7290;50.854;4.354;2023-08-30T09:30:53;17.00;99.90
14411;DHT22;7290;50.854;4.354;2023-08-30T09:33:20;17.20;99.90
14411;DHT22;7290;50.854;4.354;2023-08-30T09:35:47;17.30;99.90
14411;DHT22;7290;50.854;4.354;2023-08-30T09:38:17;17.20;99.90
14411;DHT22;7290;50.854;4.354;2023-08-30T09:40:44;17.40;99.90
14411;DHT22;7290;50.854;4.354;2023-08-30T09:43:11;17.40;99.90
14411;DHT22;7290;50.854;4.354;2023-08-30T09:45:37;17.50;99.90
14411;DHT22;7290;50.854;4.354;2023-08-30T09:48:05;17.70;99.90
14411;DHT22;7290;50.854;4.354;2023-08-30T09:50:34;17.70;99.90
14411;DHT22;7290;50.854;4.354;2023-08-30T09:53:03;17.70;99.90
14411;DHT22;7290;50.854;4.354;2023-08-30T09:55:33;17.60;99.90
14411;DHT22;7290;50.854;4.354;2023-08-30T09:58:00;17.40;99.90
14411;DHT22;7290;50.854;4.354;2023-08-30T10:00:28;17.20;99.90
14411;DHT22;7290;50.854;4.354;2023-08-30T10:02:55;17.00;99.90
14411;DHT22;7290;50.854;4.354;2023-08-30T10:05:21;17.10;99.90
14411;DHT22;7290;50.854;4.354;2023-08-30T10:07:48;17.10;99.90
14411;DHT22;7290;50.854;4.354;2023-08-30T10:10:15;17.10;99.90
14411;DHT22;7290;50.854;4.354;2023-08-30T10:12:44;17.00;99.90
14411;DHT22;7290;50.854;4.354;2023-08-30T10:15:12;17.00;99.90
14411;DHT22;7290;50.854;4.354;2023-08-30T10:17:41;16.90;99.90
14411;DHT22;7290;50.854;4.354;2023-08-30T10:20:09;17.00;99.90
14411;DHT22;7290;50.854;4.354;2023-08-30T10:22:39;17.10;99.90
14411;DHT22;7290;50.854;4.354;2023-08-30T10:25:08;17.40;99.90
14411;DHT22;7290;50.854;4.354;2023-08-30T10:27:38;17.40;99.90
14411;DHT22;7290;50.854;4.354;2023-08-30T10:30:07;17.60;99.90
14411;DHT22;7290;50.854;4.354;2023-08-30T10:32:39;17.70;99.90
14411;DHT22;7290;50.854;4.354;2023-08-30T10:35:06;18.10;99.90
14411;DHT22;7290;50.854;4.354;2023-08-30T10:37:32;18.30;99.90
14411;DHT22;7290;50.854;4.354;2023-08-30T10:40:00;18.40;99.90
14411;DHT22;7290;50.854;4.354;2023-08-30T10:42:28;18.40;99.90
14411;DHT22;7290;50.854;4.354;2023-08-30T10:44:57;18.50;99.90
14411;DHT22;7290;50.854;4.354;2023-08-30T10:47:25;18.60;99.90
14411;DHT22;7290;50.854;4.354;2023-08-30T10:50:00;18.50;99.90
14411;DHT22;7290;50.854;4.354;2023-08-30T10:52:30;18.40;99.90
14411;DHT22;7290;50.854;4.354;2023-08-30T10:55:05;18.30;99.90
14411;DHT22;7290;50.854;4.354;2023-08-30T10:57:31;18.10;99.90
14411;DHT22;7290;50.854;4.354;2023-08-30T11:00:06;17.90;99.90
14411;DHT22;7290;50.854;4.354;2023-08-30T11:02:33;17.90;99.90
14411;DHT22;7290;50.854;4.354;2023-08-30T11:05:01;17.90;99.90
14411;DHT22;7290;50.854;4.354;2023-08-30T11:07:28;17.90;99.90
14411;DHT22;7290;50.854;4.354;2023-08-30T11:09:55;17.90;99.90
14411;DHT22;7290;50.854;4.354;2023-08-30T11:12:21;18.00;99.90
14411;DHT22;7290;50.854;4.354;2023-08-30T11:14:48;18.30;99.90
14411;DHT22;7290;50.854;4.354;2023-08-30T11:17:16;18.60;99.90
14411;DHT22;7290;50.854;4.354;2023-08-30T11:19:42;19.30;99.90
14411;DHT22;7290;50.854;4.354;2023-08-30T11:22:09;19.80;99.90
14411;DHT22;7290;50.854;4.354;2023-08-30T11:24:36;19.70;99.90
14411;DHT22;7290;50.854;4.354;2023-08-30T11:27:02;20.10;99.90
14411;DHT22;7290;50.854;4.354;2023-08-30T11:29:29;20.60;99.90
14411;DHT22;7290;50.854;4.354;2023-08-30T11:31:55;20.90;99.90
14411;DHT22;7290;50.854;4.354;2023-08-30T11:34:21;20.60;99.90
14411;DHT22;7290;50.854;4.354;2023-08-30T11:36:48;20.20;99.90
14411;DHT22;7290;50.854;4.354;2023-08-30T11:39:16;20.30;99.90
14411;DHT22;7290;50.854;4.354;2023-08-30T11:41:44;19.90;99.90
14411;DHT22;7290;50.854;4.354;2023-08-30T11:44:10;19.50;99.90
14411;DHT22;7290;50.854;4.354;2023-08-30T11:46:37;20.10;99.90
14411;DHT22;7290;50.854;4.354;2023-08-30T11:49:04;21.40;99.90
14411;DHT22;7290;50.854;4.354;2023-08-30T11:51:31;22.10;99.90
14411;DHT22;7290;50.854;4.354;2023-08-30T11:53:58;22.00;99.90
14411;DHT22;7290;50.854;4.354;2023-08-30T11:56:28;21.60;99.90
14411;DHT22;7290;50.854;4.354;2023-08-30T11:58:54;20.70;99.90
14411;DHT22;7290;50.854;4.354;2023-08-30T12:01:21;20.30;99.90
14411;DHT22;7290;50.854;4.354;2023-08-30T12:03:47;20.20;99.90
14411;DHT22;7290;50.854;4.354;2023-08-30T12:06:16;20.20;99.90
14411;DHT22;7290;50.854;4.354;2023-08-30T12:08:43;20.00;99.90
14411;DHT22;7290;50.854;4.354;2023-08-30T12:11:17;19.80;99.90
14411;DHT22;7290;50.854;4.354;2023-08-30T12:13:46;20.30;99.90
14411;DHT22;7290;50.854;4.354;2023-08-30T12:16:16;20.30;99.90
14411;DHT22;7290;50.854;4.354;2023-08-30T12:18:42;20.60;99.90
14411;DHT22;7290;50.854;4.354;2023-08-30T12:21:08;20.00;99.90
14411;DHT22;7290;50.854;4.354;2023-08-30T12:23:34;20.00;99.90
14411;DHT22;7290;50.854;4.354;2023-08-30T12:26:03;20.20;99.90
14411;DHT22;7290;50.854;4.354;2023-08-30T12:28:30;20.30;99.90
14411;DHT22;7290;50.854;4.354;2023-08-30T12:30:57;20.60;99.90
14411;DHT22;7290;50.854;4.354;2023-08-30T12:33:24;20.60;99.90
14411;DHT22;7290;50.854;4.354;2023-08-30T12:35:51;20.50;99.90
14411;DHT22;7290;50.854;4.354;2023-08-30T12:38:17;20.10;99.90
14411;DHT22;7290;50.854;4.354;2023-08-30T12:40:44;20.50;99.90
14411;DHT22;7290;50.854;4.354;2023-08-30T12:43:10;20.70;99.90
14411;DHT22;7290;50.854;4.354;2023-08-30T12:45:36;20.50;99.90
14411;DHT22;7290;50.854;4.354;2023-08-30T12:48:04;20.20;99.90
14411;DHT22;7290;50.854;4.354;2023-08-30T12:50:31;19.90;99.90
14411;DHT22;7290;50.854;4.354;2023-08-30T12:52:57;19.70;99.90
14411;DHT22;7290;50.854;4.354;2023-08-30T12:55:23;19.90;99.90
14411;DHT22;7290;50.854;4.354;2023-08-30T12:57:49;20.10;99.90
14411;DHT22;7290;50.854;4.354;2023-08-30T13:00:15;20.40;99.90
14411;DHT22;7290;50.854;4.354;2023-08-30T13:02:41;20.70;99.90
14411;DHT22;7290;50.854;4.354;2023-08-30T13:05:08;20.80;99.90
14411;DHT22;7290;50.854;4.354;2023-08-30T13:07:34;20.60;99.90
14411;DHT22;7290;50.854;4.354;2023-08-30T13:10:02;20.30;99.90
14411;DHT22;7290;50.854;4.354;2023-08-30T13:12:29;20.30;99.90
14411;DHT22;7290;50.854;4.354;2023-08-30T13:14:55;20.30;99.90
14411;DHT22;7290;50.854;4.354;2023-08-30T13:17:21;20.40;99.90
14411;DHT22;7290;50.854;4.354;2023-08-30T13:19:47;20.50;99.90
14411;DHT22;7290;50.854;4.354;2023-08-30T13:22:15;20.50;99.90
14411;DHT22;7290;50.854;4.354;2023-08-30T13:24:41;20.60;99.90
14411;DHT22;7290;50.854;4.354;2023-08-30T13:27:07;20.40;99.90
14411;DHT22;7290;50.854;4.354;2023-08-30T13:29:34;20.50;99.90
14411;DHT22;7290;50.854;4.354;2023-08-30T13:32:01;20.70;99.90
14411;DHT22;7290;50.854;4.354;2023-08-30T13:34:27;20.70;99.90
14411;DHT22;7290;50.854;4.354;2023-08-30T13:36:53;20.70;99.90
14411;DHT22;7290;50.854;4.354;2023-08-30T13:39:20;20.30;99.90
14411;DHT22;7290;50.854;4.354;2023-08-30T13:41:46;20.00;99.90
14411;DHT22;7290;50.854;4.354;2023-08-30T13:44:13;19.90;99.90
14411;DHT22;7290;50.854;4.354;2023-08-30T13:46:39;19.90;99.90
14411;DHT22;7290;50.854;4.354;2023-08-30T13:49:06;19.70;99.90
14411;DHT22;7290;50.854;4.354;2023-08-30T13:51:32;19.50;99.90
14411;DHT22;7290;50.854;4.354;2023-08-30T13:53:58;19.50;99.90
14411;DHT22;7290;50.854;4.354;2023-08-30T13:56:25;19.70;99.90
14411;DHT22;7290;50.854;4.354;2023-08-30T13:58:52;19.70;99.90
14411;DHT22;7290;50.854;4.354;2023-08-30T14:01:18;19.40;99.90
14411;DHT22;7290;50.854;4.354;2023-08-30T14:03:44;19.20;99.90
14411;DHT22;7290;50.854;4.354;2023-08-30T14:06:10;19.00;99.90
14411;DHT22;7290;50.854;4.354;2023-08-30T14:08:36;19.10;99.90
14411;DHT22;7290;50.854;4.354;2023-08-30T14:11:03;19.20;99.90
14411;DHT22;7290;50.854;4.354;2023-08-30T14:13:30;19.10;99.90
14411;DHT22;7290;50.854;4.354;2023-08-30T14:15:58;19.40;99.90
14411;DHT22;7290;50.854;4.354;2023-08-30T14:18:24;19.70;99.90
14411;DHT22;7290;50.854;4.354;2023-08-30T14:20:50;19.40;99.90
14411;DHT22;7290;50.854;4.354;2023-08-30T14:23:16;19.40;99.90
14411;DHT22;7290;50.854;4.354;2023-08-30T14:25:42;19.20;99.90
14411;DHT22;7290;50.854;4.354;2023-08-30T14:28:09;19.10;99.90
14411;DHT22;7290;50.854;4.354;2023-08-30T14:30:36;19.20;99.90
14411;DHT22;7290;50.854;4.354;2023-08-30T14:33:02;19.10;99.90
14411;DHT22;7290;50.854;4.354;2023-08-30T14:35:28;19.40;99.90
14411;DHT22;7290;50.854;4.354;2023-08-30T14:37:57;19.60;99.90
14411;DHT22;7290;50.854;4.354;2023-08-30T14:40:23;19.70;99.90
14411;DHT22;7290;50.854;4.354;2023-08-30T14:42:49;20.00;99.90
14411;DHT22;7290;50.854;4.354;2023-08-30T14:45:15;20.10;99.90
14411;DHT22;7290;50.854;4.354;2023-08-30T14:47:43;20.30;99.90
14411;DHT22;7290;50.854;4.354;2023-08-30T14:50:10;20.10;99.90
14411;DHT22;7290;50.854;4.354;2023-08-30T14:52:36;20.20;99.90
14411;DHT22;7290;50.854;4.354;2023-08-30T14:55:03;20.10;99.90
14411;DHT22;7290;50.854;4.354;2023-08-30T14:57:31;20.00;99.90
14411;DHT22;7290;50.854;4.354;2023-08-30T14:59:57;20.00;99.90
14411;DHT22;7290;50.854;4.354;2023-08-30T15:02:23;19.90;99.90
14411;DHT22;7290;50.854;4.354;2023-08-30T15:04:50;20.00;99.90
14411;DHT22;7290;50.854;4.354;2023-08-30T15:07:17;20.30;99.90
14411;DHT22;7290;50.854;4.354;2023-08-30T15:09:43;20.20;99.90
14411;DHT22;7290;50.854;4.354;2023-08-30T15:12:09;20.20;99.90
14411;DHT22;7290;50.854;4.354;2023-08-30T15:14:35;20.10;99.90
14411;DHT22;7290;50.854;4.354;2023-08-30T15:17:01;19.90;99.90
14411;DHT22;7290;50.854;4.354;2023-08-30T15:19:28;19.90;99.90
14411;DHT22;7290;50.854;4.354;2023-08-30T15:21:55;19.70;99.90
14411;DHT22;7290;50.854;4.354;2023-08-30T15:24:21;19.70;99.90
14411;DHT22;7290;50.854;4.354;2023-08-30T15:26:47;19.90;99.90
14411;DHT22;7290;50.854;4.354;2023-08-30T15:29:14;19.70;99.90
14411;DHT22;7290;50.854;4.354;2023-08-30T15:31:40;19.60;99.90
14411;DHT22;7290;50.854;4.354;2023-08-30T15:34:06;19.80;99.90
14411;DHT22;7290;50.854;4.354;2023-08-30T15:36:32;20.20;99.90
14411;DHT22;7290;50.854;4.354;2023-08-30T15:38:59;20.30;99.90
14411;DHT22;7290;50.854;4.354;2023-08-30T15:41:26;19.80;99.90
14411;DHT22;7290;50.854;4.354;2023-08-30T15:43:52;19.50;99.90